This is the latest recevied weather packets stored in our database for station/object KA7KDX-4. If no packets are shown the sender has not sent any weather packets the latest 1 day(s).
| Time | Temp. | Humidity | Pressure | Rain* | Wind** | Luminosity | Snow |
|---|---|---|---|---|---|---|---|
| 1836274680 | 20° C | 41% | 1014.7 hPa | 0 mm | 1.79 m/s, 311° | - | - |
| 1836274529 | 20° C | 42% | 1014.9 hPa | 0 mm | 0.89 m/s, 301° | - | - |
| 1836274380 | 20.56° C | 41% | 1014.5 hPa | 0 mm | 1.79 m/s, 311° | - | - |
| 1836274230 | 20° C | 41% | 1014.8 hPa | 0 mm | 1.34 m/s, 301° | - | - |
| 1836274080 | 20.56° C | 41% | 1014.4 hPa | 0 mm | 1.34 m/s, 312° | - | - |
| 1778047806 | 10° C | 80% | 1011.3 hPa | 5.59 mm | 3.58 m/s, 288° | - | - |
| 1778047506 | 10° C | 77% | 1011.1 hPa | 4.83 mm | 3.13 m/s, 311° | - | - |
| 1778047206 | 10.56° C | 75% | 1010.8 hPa | 3.3 mm | 4.92 m/s, 315° | - | - |
| 1778046905 | 11.11° C | 73% | 1010.3 hPa | 2.03 mm | 5.81 m/s, 318° | - | - |
| 1778046605 | 11.11° C | 71% | 1009.9 hPa | 1.52 mm | 5.36 m/s, 310° | - | - |
| 1778046305 | 11.67° C | 70% | 1009.3 hPa | 1.02 mm | 6.26 m/s, 314° | - | - |
| 1778046005 | 12.22° C | 68% | 1008.8 hPa | 0.51 mm | 6.26 m/s, 316° | - | - |
| 1778045705 | 12.22° C | 69% | 1008.6 hPa | 0.25 mm | 8.05 m/s, 337° | - | - |
| 1778045405 | 13.33° C | 65% | 1008 hPa | 0.25 mm | 6.71 m/s, 333° | - | - |
| 1778045105 | 13.89° C | 54% | 1007.5 hPa | 0 mm | 5.36 m/s, 332° | - | - |
| 1778044806 | 13.89° C | 51% | 1007.4 hPa | 0 mm | 3.58 m/s, 321° | - | - |
| 1778044506 | 13.89° C | 51% | 1007.2 hPa | 0 mm | 2.24 m/s, 321° | - | - |
| 1778044206 | 13.89° C | 51% | 1007.1 hPa | 0 mm | 1.79 m/s, 266° | - | - |
| 1778043905 | 13.89° C | 51% | 1006.9 hPa | 0 mm | 1.34 m/s, 274° | - | - |
| 1778043605 | 13.89° C | 50% | 1006.8 hPa | 0 mm | 1.34 m/s, 247° | - | - |
| 1778043305 | 13.89° C | 50% | 1006.8 hPa | 0 mm | 2.24 m/s, 245° | - | - |
| 1778043005 | 13.89° C | 50% | 1006.9 hPa | 0 mm | 2.24 m/s, 248° | - | - |
| 1778042705 | 13.33° C | 50% | 1006.9 hPa | 0 mm | 3.13 m/s, 205° | - | - |
| 1778042406 | 13.33° C | 51% | 1006.9 hPa | 0 mm | 2.68 m/s, 208° | - | - |
| 1778042106 | 13.33° C | 52% | 1006.8 hPa | 0 mm | 3.58 m/s, 187° | - | - |
* Rain latest hour (hover to see other rain measurements)
** Current wind speed in m/s (hover to see current wind gust speed)